Time;durP1;ratioP1;P1;durP2;ratioP2;P2;SDS_P1;SDS_P2;PMS_P1;PMS_P2;Temp;Humidity;BMP_temperature;BMP_pressure;BME280_temperature;BME280_humidity;BME280_pressure;Samples;Min_cycle;Max_cycle;Signal;HPM_P1;HPM_P2
2023/11/27 00:01:42;;;;;;;;;;;;;;;17.09;46.98;99074.88;10330605;28;1894;-71
2023/11/27 00:06:38;;;;;;;;;;;;;;;17.09;46.90;99074.88;10330379;28;882;-71
2023/11/27 00:11:34;;;;;;;;;;;;;;;17.10;46.80;99075.72;10330885;28;819;-71
2023/11/27 00:16:29;;;;;;;;;;;;;;;17.06;46.93;99072.41;10329509;28;917;-71
2023/11/27 00:21:25;;;;;;;;;;;;;;;17.07;46.81;99078.53;10330522;28;1911;-71
2023/11/27 00:26:21;;;;;;;;;;;;;;;17.05;47.11;99073.31;10329762;28;873;-71
2023/11/27 00:31:17;;;;;;;;;;;;;;;17.03;46.82;99064.66;10330276;28;869;-71
2023/11/27 00:36:13;;;;;;;;;;;;;;;17.04;47.02;99062.88;10329298;28;1422;-71
2023/11/27 00:41:14;;;;;;;;;;;;;;;17.03;46.96;99058.56;10329086;28;1918;-71
2023/11/27 00:46:10;;;;;;;;;;;;;;;17.01;47.11;99050.72;10329541;28;875;-71
2023/11/27 00:51:06;;;;;;;;;;;;;;;17.02;46.97;99041.03;10329311;28;814;-71
2023/11/27 00:56:02;;;;;;;;;;;;;;;17.00;46.95;99027.09;10327907;28;1214;-71
2023/11/27 01:00:58;;;;;;;;;;;;;;;17.01;46.86;99028.81;10328295;28;1976;-71
2023/11/27 01:05:56;;;;;;;;;;;;;;;16.99;47.02;99013.09;10328230;28;866;-71
2023/11/27 01:10:51;;;;;;;;;;;;;;;16.97;46.88;99007.03;10327727;28;912;-71
2023/11/27 01:15:48;;;;;;;;;;;;;;;16.98;47.00;98998.25;10327607;28;886;-71
2023/11/27 01:20:43;;;;;;;;;;;;;;;16.99;47.25;98997.28;10326774;28;1969;-71
2023/11/27 01:25:39;;;;;;;;;;;;;;;16.98;46.95;98992.13;10328029;28;834;-71
2023/11/27 01:30:35;;;;;;;;;;;;;;;16.99;46.79;98988.56;10327709;28;872;-71
2023/11/27 01:35:31;;;;;;;;;;;;;;;16.96;46.90;98975.56;10326891;28;1281;-71
2023/11/27 01:40:27;;;;;;;;;;;;;;;16.97;46.88;98974.59;10326689;28;1910;-71
2023/11/27 01:45:23;;;;;;;;;;;;;;;16.95;47.01;98971.19;10327168;28;862;-71
2023/11/27 01:50:19;;;;;;;;;;;;;;;16.95;46.87;98960.66;10326520;28;883;-71
2023/11/27 01:55:15;;;;;;;;;;;;;;;16.92;46.82;98947.69;10326260;28;977;-71
2023/11/27 02:00:11;;;;;;;;;;;;;;;16.93;46.55;98952.03;10326056;28;1897;-71
2023/11/27 02:05:07;;;;;;;;;;;;;;;16.91;46.80;98943.34;10325913;28;1002;-71
2023/11/27 02:10:03;;;;;;;;;;;;;;;16.92;46.75;98929.25;10326435;28;862;-71
2023/11/27 02:14:59;;;;;;;;;;;;;;;16.92;46.70;98921.34;10325162;28;936;-71
2023/11/27 02:19:55;;;;;;;;;;;;;;;16.91;46.83;98919.66;10325480;28;1961;-71
2023/11/27 02:24:51;;;;;;;;;;;;;;;16.86;46.88;98902.31;10326160;28;802;-71
2023/11/27 02:29:47;;;;;;;;;;;;;;;16.89;46.97;98897.81;10325646;28;1183;-71
2023/11/27 02:34:43;;;;;;;;;;;;;;;16.89;46.99;98887.31;10325531;28;1223;-71
2023/11/27 02:39:38;;;;;;;;;;;;;;;16.89;46.87;98882.03;10325168;28;1969;-71
2023/11/27 02:44:34;;;;;;;;;;;;;;;16.86;47.06;98878.63;10325778;28;851;-71
2023/11/27 02:49:31;;;;;;;;;;;;;;;16.87;46.92;98868.94;10325028;28;862;-71
2023/11/27 02:54:27;;;;;;;;;;;;;;;16.90;47.18;98858.28;10325582;28;874;-71
2023/11/27 02:59:23;;;;;;;;;;;;;;;16.90;47.00;98863.53;10324778;28;1894;-71
2023/11/27 03:04:19;;;;;;;;;;;;;;;16.89;46.93;98843.41;10325411;28;774;-71
2023/11/27 03:09:16;;;;;;;;;;;;;;;16.87;46.98;98832.09;10324664;28;787;-71
2023/11/27 03:14:12;;;;;;;;;;;;;;;16.89;47.14;98830.25;10324559;28;895;-71
2023/11/27 03:19:08;;;;;;;;;;;;;;;16.89;46.96;98818.88;10324395;28;1898;-71
2023/11/27 03:24:04;;;;;;;;;;;;;;;16.89;46.96;98803.06;10325138;28;877;-71
2023/11/27 03:29:00;;;;;;;;;;;;;;;16.89;47.15;98795.19;10325086;28;949;-71
2023/11/27 03:33:57;;;;;;;;;;;;;;;16.89;47.04;98790.75;10329251;28;1224;-71
2023/11/27 03:38:52;;;;;;;;;;;;;;;16.88;47.02;98790.84;10331387;28;1922;-71
2023/11/27 03:43:48;;;;;;;;;;;;;;;16.88;47.24;98783.81;10332010;28;878;-71
2023/11/27 03:48:44;;;;;;;;;;;;;;;16.87;47.08;98776.81;10330540;28;1024;-71
2023/11/27 03:53:40;;;;;;;;;;;;;;;16.85;47.18;98765.56;10330992;28;854;-71
2023/11/27 03:58:36;;;;;;;;;;;;;;;16.86;47.33;98757.56;10331340;28;1902;-71
2023/11/27 04:03:32;;;;;;;;;;;;;;;16.85;47.19;98747.97;10330571;28;775;-71
2023/11/27 04:08:28;;;;;;;;;;;;;;;16.82;47.11;98737.63;10331149;28;854;-71
2023/11/27 04:13:24;;;;;;;;;;;;;;;16.83;47.05;98734.03;10330298;28;799;-71
2023/11/27 04:18:20;;;;;;;;;;;;;;;16.83;47.43;98734.03;10330008;28;1902;-71
2023/11/27 04:23:17;;;;;;;;;;;;;;;16.85;47.39;98726.06;10329937;28;785;-71
2023/11/27 04:28:12;;;;;;;;;;;;;;;16.81;47.10;98720.13;10330288;28;853;-71
2023/11/27 04:33:08;;;;;;;;;;;;;;;16.81;47.26;98717.47;10329390;28;1206;-71
2023/11/27 04:38:04;;;;;;;;;;;;;;;16.83;47.28;98707.72;10329983;28;1914;-72
2023/11/27 04:43:00;;;;;;;;;;;;;;;16.88;47.07;98696.09;10329115;28;748;-71
2023/11/27 04:47:56;;;;;;;;;;;;;;;16.92;47.16;98681.81;10329565;28;814;-71
2023/11/27 04:52:52;;;;;;;;;;;;;;;16.92;47.17;98673.94;10330248;28;978;-71
2023/11/27 04:57:48;;;;;;;;;;;;;;;16.96;46.90;98664.94;10328661;28;1918;-72
2023/11/27 05:02:44;;;;;;;;;;;;;;;16.96;46.86;98647.34;10328353;28;874;-71
2023/11/27 05:07:40;;;;;;;;;;;;;;;16.96;47.00;98638.63;10328672;28;862;-71
2023/11/27 05:12:36;;;;;;;;;;;;;;;17.01;46.89;98631.31;10329152;28;857;-71
2023/11/27 05:17:31;;;;;;;;;;;;;;;17.01;46.83;98632.13;10328217;28;1890;-71
2023/11/27 05:22:27;;;;;;;;;;;;;;;17.02;46.83;98619.81;10327512;28;856;-71
2023/11/27 05:27:24;;;;;;;;;;;;;;;17.07;46.81;98610.72;10327281;28;894;-71
2023/11/27 05:32:21;;;;;;;;;;;;;;;17.07;46.68;98601.97;10326936;28;930;-71
2023/11/27 05:37:17;;;;;;;;;;;;;;;17.07;46.86;98594.91;10326637;28;1914;-71
2023/11/27 05:42:13;;;;;;;;;;;;;;;17.11;46.55;98587.72;10326872;28;1063;-71
2023/11/27 05:47:11;;;;;;;;;;;;;;;17.11;46.65;98574.53;10327289;28;925;-72
2023/11/27 05:52:08;;;;;;;;;;;;;;;17.12;46.68;98568.31;10326869;28;1175;-71
2023/11/27 05:57:04;;;;;;;;;;;;;;;17.18;46.44;98557.41;10325821;28;814;-72
2023/11/27 06:02:00;;;;;;;;;;;;;;;17.14;46.56;98550.66;10326026;28;1989;-72
2023/11/27 06:06:57;;;;;;;;;;;;;;;17.17;46.83;98539.09;10324448;28;1177;-72
2023/11/27 06:11:53;;;;;;;;;;;;;;;17.16;46.48;98525.09;10322195;28;1128;-72
2023/11/27 06:16:49;;;;;;;;;;;;;;;17.17;46.67;98512.75;10324060;28;820;-71
2023/11/27 06:21:45;;;;;;;;;;;;;;;17.19;46.64;98495.94;10325603;28;1906;-72
2023/11/27 06:26:41;;;;;;;;;;;;;;;17.23;46.62;98491.31;10324630;28;830;-72
2023/11/27 06:31:37;;;;;;;;;;;;;;;17.23;46.65;98488.69;10324917;28;814;-72
2023/11/27 06:36:33;;;;;;;;;;;;;;;17.25;46.70;98477.13;10325346;28;1124;-72
2023/11/27 06:41:30;;;;;;;;;;;;;;;17.22;46.70;98464.16;10324976;28;1902;-73
2023/11/27 06:46:27;;;;;;;;;;;;;;;17.22;46.94;98444.88;10324171;28;850;-72
2023/11/27 06:51:23;;;;;;;;;;;;;;;17.25;46.66;98442.88;10325159;28;806;-73
2023/11/27 06:56:19;;;;;;;;;;;;;;;17.26;46.76;98439.28;10324586;28;861;-72
2023/11/27 07:01:16;;;;;;;;;;;;;;;17.27;46.76;98433.09;10324497;28;1897;-72
2023/11/27 07:06:12;;;;;;;;;;;;;;;17.31;46.65;98429.31;10324809;28;897;-72
2023/11/27 07:11:09;;;;;;;;;;;;;;;17.33;46.81;98417.88;10332732;28;883;-72
2023/11/27 07:16:05;;;;;;;;;;;;;;;17.31;46.78;98413.53;10331424;28;966;-72
2023/11/27 07:21:01;;;;;;;;;;;;;;;17.31;46.66;98400.34;10331717;28;1965;-71
2023/11/27 07:25:57;;;;;;;;;;;;;;;17.33;46.74;98391.53;10331039;28;875;-72
2023/11/27 07:30:54;;;;;;;;;;;;;;;17.33;47.04;98378.38;10331441;28;875;-71
2023/11/27 07:35:50;;;;;;;;;;;;;;;17.35;46.79;98369.41;10331625;28;1243;-72
2023/11/27 07:40:46;;;;;;;;;;;;;;;17.35;46.95;98356.25;10330943;28;1973;-72
2023/11/27 07:45:42;;;;;;;;;;;;;;;17.34;47.24;98343.16;10330967;28;822;-72
2023/11/27 07:50:38;;;;;;;;;;;;;;;17.25;47.52;98319.13;10331286;28;925;-72
2023/11/27 07:55:34;;;;;;;;;;;;;;;17.19;47.57;98301.09;10330819;28;833;-72
2023/11/27 08:00:31;;;;;;;;;;;;;;;17.14;47.61;98297.91;10330542;28;1874;-72
2023/11/27 08:05:29;;;;;;;;;;;;;;;17.08;47.82;98272.81;10329961;28;966;-71
2023/11/27 08:10:25;;;;;;;;;;;;;;;17.05;47.64;98269.50;10330510;28;874;-72
2023/11/27 08:15:21;;;;;;;;;;;;;;;17.03;47.60;98256.47;10329202;28;1077;-72
2023/11/27 08:20:17;;;;;;;;;;;;;;;17.04;47.78;98249.41;10329368;28;1894;-72
2023/11/27 08:25:16;;;;;;;;;;;;;;;17.04;47.72;98244.97;10329783;28;771;-72
2023/11/27 08:30:12;;;;;;;;;;;;;;;17.07;47.56;98238.69;10329501;28;872;-71
2023/11/27 08:35:08;;;;;;;;;;;;;;;17.11;47.52;98229.66;10328177;28;1458;-72
2023/11/27 08:40:08;;;;;;;;;;;;;;;17.13;47.49;98227.75;10329386;28;1917;-73
2023/11/27 08:45:10;;;;;;;;;;;;;;;17.19;47.23;98224.72;10329077;28;871;-72
2023/11/27 08:50:07;;;;;;;;;;;;;;;17.22;47.34;98207.88;10328636;28;841;-72
2023/11/27 08:55:05;;;;;;;;;;;;;;;17.22;47.39;98200.00;10328247;28;799;-71
2023/11/27 09:00:04;;;;;;;;;;;;;;;17.24;47.35;98183.16;10328502;28;1906;-72
2023/11/27 09:05:00;;;;;;;;;;;;;;;17.22;47.26;98178.94;10327819;28;946;-71
2023/11/27 09:09:56;;;;;;;;;;;;;;;17.26;47.26;98172.50;10327600;28;882;-71
2023/11/27 09:14:52;;;;;;;;;;;;;;;17.27;47.21;98169.78;10328394;28;858;-71
2023/11/27 09:19:48;;;;;;;;;;;;;;;17.26;47.37;98175.13;10327230;28;1961;-71
2023/11/27 09:24:44;;;;;;;;;;;;;;;17.29;47.10;98167.88;10327214;28;826;-71
2023/11/27 09:29:39;;;;;;;;;;;;;;;17.28;47.13;98160.06;10326206;28;899;-71
2023/11/27 09:34:36;;;;;;;;;;;;;;;17.28;47.10;98150.38;10327029;28;1061;-71
2023/11/27 09:39:32;;;;;;;;;;;;;;;17.29;47.22;98143.31;10326306;28;1922;-72
2023/11/27 09:44:28;;;;;;;;;;;;;;;17.30;47.02;98131.84;10327058;28;864;-72
2023/11/27 09:49:24;;;;;;;;;;;;;;;17.28;47.03;98120.56;10326360;28;871;-71
2023/11/27 09:54:20;;;;;;;;;;;;;;;17.30;47.01;98113.44;10324767;28;1014;-71
2023/11/27 09:59:16;;;;;;;;;;;;;;;17.33;47.34;98104.47;10325011;28;1901;-72
2023/11/27 10:04:12;;;;;;;;;;;;;;;17.27;46.91;98096.03;10325261;28;1001;-71
2023/11/27 10:09:08;;;;;;;;;;;;;;;17.29;46.87;98075.72;10325885;28;853;-72
2023/11/27 10:14:15;;;;;;;;;;;;;;;17.33;46.79;98063.19;10325303;28;835;-72
2023/11/27 10:19:19;;;;;;;;;;;;;;;17.31;46.83;98042.19;10325072;28;1906;-71
2023/11/27 10:24:16;;;;;;;;;;;;;;;17.33;46.96;98028.94;10325270;28;814;-71
2023/11/27 10:29:12;;;;;;;;;;;;;;;17.30;46.92;98002.81;10325402;28;863;-71
2023/11/27 10:34:10;;;;;;;;;;;;;;;17.31;46.90;97989.53;10325022;28;1138;-72
2023/11/27 10:39:15;;;;;;;;;;;;;;;17.34;46.95;97980.59;10324825;28;1913;-71
2023/11/27 10:44:11;;;;;;;;;;;;;;;17.34;46.72;97977.09;10337554;28;786;-71
2023/11/27 10:49:07;;;;;;;;;;;;;;;17.33;47.01;97962.28;10339071;28;855;-73
2023/11/27 10:54:03;;;;;;;;;;;;;;;17.36;46.91;97947.09;10337521;28;968;-73
2023/11/27 10:58:59;;;;;;;;;;;;;;;17.34;46.82;97945.50;10338781;28;1897;-72
2023/11/27 11:03:56;;;;;;;;;;;;;;;17.37;46.83;97924.22;10338045;28;773;-72
2023/11/27 11:08:52;;;;;;;;;;;;;;;17.36;46.84;97910.22;10337979;28;959;-72
2023/11/27 11:13:48;;;;;;;;;;;;;;;17.35;47.06;97892.75;10337830;28;763;-72
2023/11/27 11:18:44;;;;;;;;;;;;;;;17.36;46.86;97893.59;10337761;28;1901;-72
2023/11/27 11:23:40;;;;;;;;;;;;;;;17.40;46.82;97892.44;10337358;28;1028;-71
2023/11/27 11:28:36;;;;;;;;;;;;;;;17.37;46.88;97874.19;10338168;28;935;-72
2023/11/27 11:33:32;;;;;;;;;;;;;;;17.34;46.89;97871.78;10337705;28;1231;-72
2023/11/27 11:38:30;;;;;;;;;;;;;;;17.36;46.70;97865.44;10337752;28;1917;-73
2023/11/27 11:43:26;;;;;;;;;;;;;;;17.37;46.89;97850.47;10337304;28;773;-71
2023/11/27 11:48:22;;;;;;;;;;;;;;;17.39;46.70;97840.69;10337648;28;843;-72
2023/11/27 11:53:18;;;;;;;;;;;;;;;17.35;46.97;97840.09;10333797;28;868;-72
2023/11/27 11:58:14;;;;;;;;;;;;;;;17.34;46.78;97819.94;10330891;28;1966;-72
2023/11/27 12:03:15;;;;;;;;;;;;;;;17.37;46.66;97817.13;10331383;28;799;-72
2023/11/27 12:08:11;;;;;;;;;;;;;;;17.37;46.79;97826.78;10330566;28;939;-72
2023/11/27 12:13:08;;;;;;;;;;;;;;;17.36;46.74;97809.31;10330965;28;973;-72
2023/11/27 12:18:09;;;;;;;;;;;;;;;17.37;46.61;97792.53;10330120;28;1906;-71
2023/11/27 12:23:05;;;;;;;;;;;;;;;17.35;46.65;97790.03;10330150;28;866;-72
2023/11/27 12:28:01;;;;;;;;;;;;;;;17.36;46.78;97799.63;10330458;28;893;-71
2023/11/27 12:32:57;;;;;;;;;;;;;;;17.36;46.63;97786.44;10330166;28;1116;-71
2023/11/27 12:37:53;;;;;;;;;;;;;;;17.35;46.57;97786.56;10329399;28;1914;-71
2023/11/27 12:42:50;;;;;;;;;;;;;;;17.38;46.57;97775.81;10329426;28;969;-72
2023/11/27 12:47:50;;;;;;;;;;;;;;;17.36;46.63;97759.28;10329020;28;891;-71
2023/11/27 12:52:46;;;;;;;;;;;;;;;17.36;46.56;97749.56;10328839;28;890;-71
2023/11/27 12:57:42;;;;;;;;;;;;;;;17.37;46.43;97739.88;10328990;28;1952;-71
2023/11/27 13:02:44;;;;;;;;;;;;;;;17.37;46.60;97731.97;10328440;28;775;-71
2023/11/27 13:07:41;;;;;;;;;;;;;;;17.35;46.52;97729.47;10327167;28;842;-71
2023/11/27 13:12:48;;;;;;;;;;;;;;;17.38;46.49;97721.34;10328109;28;821;-72
2023/11/27 13:17:44;;;;;;;;;;;;;;;17.38;46.60;97717.88;10327770;28;1951;-71
2023/11/27 13:22:40;;;;;;;;;;;;;;;17.38;46.43;97707.34;10327177;28;826;-71
2023/11/27 13:27:44;;;;;;;;;;;;;;;17.38;46.59;97689.75;10327394;28;896;-73
2023/11/27 13:32:40;;;;;;;;;;;;;;;17.41;46.53;97675.50;10325056;28;1200;-71
2023/11/27 13:37:38;;;;;;;;;;;;;;;17.40;46.55;97666.78;10326043;28;1972;-71
2023/11/27 13:42:35;;;;;;;;;;;;;;;17.40;46.66;97666.78;10327466;28;833;-71
2023/11/27 13:47:33;;;;;;;;;;;;;;;17.40;46.64;97648.34;10326293;28;802;-72
2023/11/27 13:52:29;;;;;;;;;;;;;;;17.39;46.47;97638.75;10326370;28;771;-73
2023/11/27 13:57:28;;;;;;;;;;;;;;;17.42;46.43;97637.69;10326234;28;881;-72
2023/11/27 14:02:27;;;;;;;;;;;;;;;17.34;46.55;97627.72;10326804;28;823;-72
2023/11/27 14:07:24;;;;;;;;;;;;;;;17.36;46.56;97620.53;10326076;28;880;-71
2023/11/27 14:12:26;;;;;;;;;;;;;;;17.38;46.48;97607.28;10325947;28;846;-71
2023/11/27 14:17:34;;;;;;;;;;;;;;;17.39;46.34;97611.56;10325418;28;939;-71
2023/11/27 14:27:56;;;;;;;;;;;;;;;17.40;46.45;97613.28;10325899;28;738;-72
2023/11/27 14:32:53;;;;;;;;;;;;;;;17.39;46.43;97595.78;10325241;28;1250;-71
2023/11/27 14:37:51;;;;;;;;;;;;;;;17.42;46.36;97585.00;10326388;28;1910;-71
2023/11/27 14:42:47;;;;;;;;;;;;;;;17.37;46.68;97581.88;10325199;28;986;-72
2023/11/27 14:47:45;;;;;;;;;;;;;;;17.37;46.48;97576.63;10325153;28;806;-71
2023/11/27 14:52:43;;;;;;;;;;;;;;;17.40;46.34;97571.13;10325012;28;977;-71
2023/11/27 14:57:40;;;;;;;;;;;;;;;17.37;46.51;97571.34;10325451;28;1893;-71
2023/11/27 15:02:37;;;;;;;;;;;;;;;17.39;46.28;97565.00;10325028;28;777;-72
2023/11/27 15:07:34;;;;;;;;;;;;;;;17.39;46.41;97548.38;10324924;28;858;-73
2023/11/27 15:12:32;;;;;;;;;;;;;;;17.41;46.52;97542.03;10325405;28;886;-71
2023/11/27 15:17:28;;;;;;;;;;;;;;;17.43;46.66;97540.13;10324518;28;951;-71
2023/11/27 15:22:26;;;;;;;;;;;;;;;17.43;46.78;97528.75;10324534;28;784;-72
2023/11/27 15:27:25;;;;;;;;;;;;;;;17.41;46.79;97530.66;10326115;28;850;-71
2023/11/27 15:32:23;;;;;;;;;;;;;;;17.44;46.99;97530.44;10332506;28;891;-71
2023/11/27 15:37:23;;;;;;;;;;;;;;;17.43;46.92;97519.06;10331611;28;1118;-72
2023/11/27 15:42:19;;;;;;;;;;;;;;;17.40;46.90;97505.31;10331490;28;1969;-72
2023/11/27 15:47:15;;;;;;;;;;;;;;;17.38;47.19;97504.59;10331436;28;984;-71
2023/11/27 15:52:11;;;;;;;;;;;;;;;17.39;47.21;97495.72;10331845;28;802;-71
2023/11/27 15:57:08;;;;;;;;;;;;;;;17.34;47.07;97493.44;10331899;28;804;-72
2023/11/27 16:02:05;;;;;;;;;;;;;;;17.28;47.19;97488.66;10330912;28;1902;-72
2023/11/27 16:07:01;;;;;;;;;;;;;;;17.24;47.21;97490.69;10331284;28;810;-71
2023/11/27 16:11:57;;;;;;;;;;;;;;;17.22;47.28;97473.34;10331250;28;919;-72
2023/11/27 16:16:54;;;;;;;;;;;;;;;17.21;47.22;97472.50;10330979;28;854;-72
2023/11/27 16:21:50;;;;;;;;;;;;;;;17.25;47.12;97470.47;10330000;28;1902;-72
2023/11/27 16:26:48;;;;;;;;;;;;;;;17.23;47.19;97464.47;10329919;28;779;-71
2023/11/27 16:31:47;;;;;;;;;;;;;;;17.28;47.02;97459.69;10329724;28;865;-71
2023/11/27 16:36:43;;;;;;;;;;;;;;;17.27;46.86;97450.94;10329366;28;1258;-70
2023/11/27 16:41:39;;;;;;;;;;;;;;;17.27;47.08;97450.94;10329592;28;1910;-72
2023/11/27 16:46:37;;;;;;;;;;;;;;;17.38;46.78;97441.38;10329786;28;846;-72
2023/11/27 16:51:33;;;;;;;;;;;;;;;17.33;46.74;97443.53;10329799;28;951;-72
2023/11/27 16:56:29;;;;;;;;;;;;;;;17.39;46.69;97438.59;10328774;28;977;-71
2023/11/27 17:01:25;;;;;;;;;;;;;;;17.39;46.75;97428.06;10329105;28;1894;-71
2023/11/27 17:06:21;;;;;;;;;;;;;;;17.39;46.73;97433.34;10328325;28;888;-71
2023/11/27 17:11:17;;;;;;;;;;;;;;;17.41;46.75;97426.16;10328714;28;818;-72
2023/11/27 17:16:12;;;;;;;;;;;;;;;17.42;46.59;97421.72;10328562;28;831;-72
2023/11/27 17:21:08;;;;;;;;;;;;;;;17.43;46.63;97423.44;10327759;28;1901;-71
2023/11/27 17:26:04;;;;;;;;;;;;;;;17.44;46.52;97410.13;10327572;28;802;-72
2023/11/27 17:31:00;;;;;;;;;;;;;;;17.44;46.67;97411.91;10327420;28;766;-72
2023/11/27 17:35:56;;;;;;;;;;;;;;;17.45;46.61;97405.72;10327542;28;1256;-72
2023/11/27 17:40:53;;;;;;;;;;;;;;;17.45;46.66;97406.53;10327497;28;1975;-71
2023/11/27 17:45:53;;;;;;;;;;;;;;;17.45;46.70;97400.44;10326917;28;802;-72
2023/11/27 17:50:49;;;;;;;;;;;;;;;17.47;46.50;97404.59;10326058;28;794;-72
2023/11/27 17:55:45;;;;;;;;;;;;;;;17.46;46.76;97396.84;10327076;28;821;-71
2023/11/27 18:00:46;;;;;;;;;;;;;;;17.45;46.50;97390.75;10327153;28;1893;-72
2023/11/27 18:05:42;;;;;;;;;;;;;;;17.47;46.55;97382.69;10325820;28;1038;-72
2023/11/27 18:10:38;;;;;;;;;;;;;;;17.49;46.60;97379.00;10326075;28;803;-71
2023/11/27 18:15:34;;;;;;;;;;;;;;;17.47;46.70;97383.53;10326502;28;866;-72
2023/11/27 18:20:29;;;;;;;;;;;;;;;17.48;46.54;97384.41;10326475;28;1906;-72
2023/11/27 18:25:25;;;;;;;;;;;;;;;17.49;46.62;97380.78;10325493;28;809;-72
2023/11/27 18:30:21;;;;;;;;;;;;;;;17.51;46.44;97373.63;10325507;28;883;-71
2023/11/27 18:35:18;;;;;;;;;;;;;;;17.51;46.58;97377.06;10325674;28;1198;-72
2023/11/27 18:40:14;;;;;;;;;;;;;;;17.51;46.56;97363.06;10325745;28;1915;-72
2023/11/27 18:45:10;;;;;;;;;;;;;;;17.51;46.66;97363.06;10325255;28;1647;-72
2023/11/27 18:50:06;;;;;;;;;;;;;;;17.51;46.51;97363.06;10325094;28;839;-72
2023/11/27 18:55:02;;;;;;;;;;;;;;;17.52;46.74;97359.47;10325599;28;898;-72
2023/11/27 18:59:58;;;;;;;;;;;;;;;17.53;46.52;97353.25;10325724;28;1894;-71
2023/11/27 19:04:54;;;;;;;;;;;;;;;17.56;46.55;97349.53;10332617;28;869;-71
2023/11/27 19:09:52;;;;;;;;;;;;;;;17.52;46.64;97341.88;10333051;28;781;-71
2023/11/27 19:14:47;;;;;;;;;;;;;;;17.57;46.61;97340.69;10333410;28;850;-71
2023/11/27 19:19:43;;;;;;;;;;;;;;;17.53;46.67;97338.28;10332522;28;1898;-71
2023/11/27 19:24:39;;;;;;;;;;;;;;;17.52;46.60;97343.66;10332571;28;946;-71
2023/11/27 19:29:35;;;;;;;;;;;;;;;17.53;46.50;97332.19;10332098;28;897;-72
2023/11/27 19:34:32;;;;;;;;;;;;;;;17.54;46.52;97320.69;10331892;28;1196;-72
2023/11/27 19:39:28;;;;;;;;;;;;;;;17.55;46.54;97326.78;10332063;28;1910;-71
2023/11/27 19:44:24;;;;;;;;;;;;;;;17.57;46.62;97327.50;10332197;28;905;-71
2023/11/27 19:49:20;;;;;;;;;;;;;;;17.57;46.55;97320.44;10332044;28;808;-71
2023/11/27 19:54:19;;;;;;;;;;;;;;;17.56;46.51;97324.03;10331613;28;849;-72
2023/11/27 19:59:14;;;;;;;;;;;;;;;17.54;46.41;97315.41;10330322;28;1939;-71
2023/11/27 20:04:11;;;;;;;;;;;;;;;17.55;46.57;97316.25;10331504;28;786;-71
2023/11/27 20:09:09;;;;;;;;;;;;;;;17.56;46.50;97318.78;10330683;28;881;-71
2023/11/27 20:14:06;;;;;;;;;;;;;;;17.58;46.37;97316.84;10329259;28;1200;-72
2023/11/27 20:19:04;;;;;;;;;;;;;;;17.57;46.40;97315.16;10329966;28;1941;-72
2023/11/27 20:24:00;;;;;;;;;;;;;;;17.56;46.58;97316.13;10330868;28;887;-71
2023/11/27 20:29:00;;;;;;;;;;;;;;;17.56;46.50;97313.50;10329977;28;784;-71
2023/11/27 20:33:56;;;;;;;;;;;;;;;17.57;46.55;97303.78;10329733;28;1096;-71
2023/11/27 20:38:54;;;;;;;;;;;;;;;17.53;46.60;97311.94;10329506;28;1902;-72
2023/11/27 20:43:50;;;;;;;;;;;;;;;17.55;46.67;97310.97;10329736;28;783;-71
2023/11/27 20:48:49;;;;;;;;;;;;;;;17.51;46.80;97310.41;10329772;28;863;-72
2023/11/27 20:53:45;;;;;;;;;;;;;;;17.47;46.69;97317.69;10329049;28;762;-71
2023/11/27 20:58:41;;;;;;;;;;;;;;;17.49;46.57;97320.22;10329316;28;1943;-72
2023/11/27 21:03:37;;;;;;;;;;;;;;;17.46;46.68;97312.56;10329355;28;930;-71
2023/11/27 21:08:33;;;;;;;;;;;;;;;17.46;46.88;97318.66;10328273;28;830;-71
2023/11/27 21:13:29;;;;;;;;;;;;;;;17.45;46.72;97316.19;10328809;28;889;-71
2023/11/27 21:18:24;;;;;;;;;;;;;;;17.45;46.92;97310.91;10327884;28;1914;-71
2023/11/27 21:23:22;;;;;;;;;;;;;;;17.44;46.84;97317.13;10327687;28;780;-72
2023/11/27 21:28:18;;;;;;;;;;;;;;;17.40;46.74;97318.34;10326946;28;906;-72
2023/11/27 21:33:14;;;;;;;;;;;;;;;17.41;46.67;97314.72;10326755;28;1100;-72
2023/11/27 21:38:10;;;;;;;;;;;;;;;17.39;46.90;97311.38;10327552;28;1957;-72
2023/11/27 21:43:07;;;;;;;;;;;;;;;17.37;46.79;97315.94;10327598;28;926;-71
2023/11/27 21:48:03;;;;;;;;;;;;;;;17.34;47.04;97321.44;10326765;28;886;-71
2023/11/27 21:52:58;;;;;;;;;;;;;;;17.33;47.00;97328.50;10327418;28;814;-71
2023/11/27 21:57:54;;;;;;;;;;;;;;;17.30;46.93;97320.88;10326376;28;1953;-71
2023/11/27 22:02:50;;;;;;;;;;;;;;;17.26;47.32;97328.16;10326247;28;870;-71
2023/11/27 22:07:49;;;;;;;;;;;;;;;17.22;47.22;97332.00;10326086;28;766;-71
2023/11/27 22:12:45;;;;;;;;;;;;;;;17.20;47.13;97333.91;10325642;28;783;-72
2023/11/27 22:17:40;;;;;;;;;;;;;;;17.19;47.27;97337.53;10325688;28;807;-72
2023/11/27 22:22:37;;;;;;;;;;;;;;;17.17;47.19;97338.59;10326252;28;1898;-72
2023/11/27 22:27:33;;;;;;;;;;;;;;;17.16;47.42;97347.44;10325583;28;819;-72
2023/11/27 22:32:29;;;;;;;;;;;;;;;17.12;47.30;97349.47;10325354;28;1312;-72
2023/11/27 22:37:25;;;;;;;;;;;;;;;17.08;47.48;97351.53;10325590;28;814;-72
2023/11/27 22:42:21;;;;;;;;;;;;;;;17.09;47.55;97357.63;10324592;28;1963;-71
2023/11/27 22:47:17;;;;;;;;;;;;;;;17.11;47.37;97362.75;10325869;28;852;-71
2023/11/27 22:52:13;;;;;;;;;;;;;;;17.06;47.54;97365.75;10326124;28;811;-71
2023/11/27 22:57:09;;;;;;;;;;;;;;;17.04;47.59;97381.66;10324571;28;924;-71
2023/11/27 23:02:05;;;;;;;;;;;;;;;17.04;47.40;97386.09;10325513;28;1890;-71
2023/11/27 23:07:01;;;;;;;;;;;;;;;17.08;47.44;97387.50;10325067;28;814;-71
2023/11/27 23:11:56;;;;;;;;;;;;;;;17.05;47.39;97396.47;10324708;28;719;-71
2023/11/27 23:16:52;;;;;;;;;;;;;;;17.05;47.46;97399.13;10325295;28;776;-71
2023/11/27 23:21:49;;;;;;;;;;;;;;;17.05;47.51;97404.38;10324543;28;1898;-71
2023/11/27 23:26:45;;;;;;;;;;;;;;;17.07;47.37;97409.53;10324507;28;805;-71
2023/11/27 23:31:40;;;;;;;;;;;;;;;17.06;47.54;97421.03;10324263;28;1167;-71
2023/11/27 23:36:36;;;;;;;;;;;;;;;17.05;47.36;97424.59;10324659;28;1153;-71
2023/11/27 23:41:32;;;;;;;;;;;;;;;17.03;47.47;97424.75;10324455;28;2319;-71
2023/11/27 23:46:28;;;;;;;;;;;;;;;17.03;47.34;97442.31;10324735;28;823;-71
2023/11/27 23:51:24;;;;;;;;;;;;;;;17.04;47.30;97450.09;10330511;28;933;-69
2023/11/27 23:56:20;;;;;;;;;;;;;;;17.01;47.59;97457.38;10331806;28;909;-72
